sensor_id;sensor_type;location;lat;lon;timestamp;temperature;humidity
5901;DHT22;2976;49.764;9.796;2023-08-12T00:00:56;17.30;99.90
5901;DHT22;2976;49.764;9.796;2023-08-12T00:03:22;17.30;99.90
5901;DHT22;2976;49.764;9.796;2023-08-12T00:05:47;17.20;99.90
5901;DHT22;2976;49.764;9.796;2023-08-12T00:08:13;17.20;99.90
5901;DHT22;2976;49.764;9.796;2023-08-12T00:10:39;17.10;99.90
5901;DHT22;2976;49.764;9.796;2023-08-12T00:13:04;17.20;99.90
5901;DHT22;2976;49.764;9.796;2023-08-12T00:15:30;17.20;99.90
5901;DHT22;2976;49.764;9.796;2023-08-12T00:17:55;17.30;99.90
5901;DHT22;2976;49.764;9.796;2023-08-12T00:20:21;17.30;99.90
5901;DHT22;2976;49.764;9.796;2023-08-12T00:22:47;17.30;99.90
5901;DHT22;2976;49.764;9.796;2023-08-12T00:25:12;17.40;99.90
5901;DHT22;2976;49.764;9.796;2023-08-12T00:27:38;17.30;99.90
5901;DHT22;2976;49.764;9.796;2023-08-12T00:30:04;17.30;99.90
5901;DHT22;2976;49.764;9.796;2023-08-12T00:32:30;17.20;99.90
5901;DHT22;2976;49.764;9.796;2023-08-12T00:34:56;17.10;99.90
5901;DHT22;2976;49.764;9.796;2023-08-12T00:37:21;17.10;99.90
5901;DHT22;2976;49.764;9.796;2023-08-12T00:39:47;17.00;99.90
5901;DHT22;2976;49.764;9.796;2023-08-12T00:42:13;17.00;99.90
5901;DHT22;2976;49.764;9.796;2023-08-12T00:44:38;16.80;99.90
5901;DHT22;2976;49.764;9.796;2023-08-12T00:47:04;16.70;99.90
5901;DHT22;2976;49.764;9.796;2023-08-12T00:49:31;16.60;99.90
5901;DHT22;2976;49.764;9.796;2023-08-12T00:51:58;16.60;99.90
5901;DHT22;2976;49.764;9.796;2023-08-12T00:54:25;16.50;99.90
5901;DHT22;2976;49.764;9.796;2023-08-12T00:56:52;16.50;99.90
5901;DHT22;2976;49.764;9.796;2023-08-12T00:59:19;16.50;99.90
5901;DHT22;2976;49.764;9.796;2023-08-12T01:01:46;16.50;99.90
5901;DHT22;2976;49.764;9.796;2023-08-12T01:04:12;16.50;99.90
5901;DHT22;2976;49.764;9.796;2023-08-12T01:06:38;16.50;99.90
5901;DHT22;2976;49.764;9.796;2023-08-12T01:09:05;16.60;99.90
5901;DHT22;2976;49.764;9.796;2023-08-12T01:14:18;16.60;99.90
5901;DHT22;2976;49.764;9.796;2023-08-12T01:16:50;16.60;99.90
5901;DHT22;2976;49.764;9.796;2023-08-12T01:19:37;16.60;99.90
5901;DHT22;2976;49.764;9.796;2023-08-12T01:22:04;16.60;99.90
5901;DHT22;2976;49.764;9.796;2023-08-12T01:24:40;16.70;99.90
5901;DHT22;2976;49.764;9.796;2023-08-12T01:27:07;16.60;99.90
5901;DHT22;2976;49.764;9.796;2023-08-12T01:29:34;16.60;99.90
5901;DHT22;2976;49.764;9.796;2023-08-12T01:32:37;16.60;99.90
5901;DHT22;2976;49.764;9.796;2023-08-12T01:35:20;16.60;99.90
5901;DHT22;2976;49.764;9.796;2023-08-12T01:37:50;16.70;99.90
5901;DHT22;2976;49.764;9.796;2023-08-12T01:40:18;16.70;99.90
5901;DHT22;2976;49.764;9.796;2023-08-12T01:42:45;16.60;99.90
5901;DHT22;2976;49.764;9.796;2023-08-12T01:45:10;16.60;99.90
5901;DHT22;2976;49.764;9.796;2023-08-12T01:47:36;16.60;99.90
5901;DHT22;2976;49.764;9.796;2023-08-12T01:50:02;16.60;99.90
5901;DHT22;2976;49.764;9.796;2023-08-12T01:52:28;16.50;99.90
5901;DHT22;2976;49.764;9.796;2023-08-12T01:54:54;16.50;99.90
5901;DHT22;2976;49.764;9.796;2023-08-12T01:57:19;16.50;99.90
5901;DHT22;2976;49.764;9.796;2023-08-12T01:59:45;16.50;99.90
5901;DHT22;2976;49.764;9.796;2023-08-12T02:02:11;16.50;99.90
5901;DHT22;2976;49.764;9.796;2023-08-12T02:04:38;16.50;99.90
5901;DHT22;2976;49.764;9.796;2023-08-12T02:07:04;16.50;99.90
5901;DHT22;2976;49.764;9.796;2023-08-12T02:09:29;16.40;99.90
5901;DHT22;2976;49.764;9.796;2023-08-12T02:11:56;16.40;99.90
5901;DHT22;2976;49.764;9.796;2023-08-12T02:14:22;16.40;99.90
5901;DHT22;2976;49.764;9.796;2023-08-12T02:16:47;16.50;99.90
5901;DHT22;2976;49.764;9.796;2023-08-12T02:19:13;16.50;99.90
5901;DHT22;2976;49.764;9.796;2023-08-12T02:21:38;16.60;99.90
5901;DHT22;2976;49.764;9.796;2023-08-12T02:24:04;16.60;99.90
5901;DHT22;2976;49.764;9.796;2023-08-12T02:26:30;16.60;99.90
5901;DHT22;2976;49.764;9.796;2023-08-12T02:28:55;16.70;99.90
5901;DHT22;2976;49.764;9.796;2023-08-12T02:31:21;16.60;99.90
5901;DHT22;2976;49.764;9.796;2023-08-12T02:33:47;16.60;99.90
5901;DHT22;2976;49.764;9.796;2023-08-12T02:36:12;16.50;99.90
5901;DHT22;2976;49.764;9.796;2023-08-12T02:38:38;16.50;99.90
5901;DHT22;2976;49.764;9.796;2023-08-12T02:41:03;16.40;99.90
5901;DHT22;2976;49.764;9.796;2023-08-12T02:43:29;16.40;99.90
5901;DHT22;2976;49.764;9.796;2023-08-12T02:45:54;16.30;99.90
5901;DHT22;2976;49.764;9.796;2023-08-12T02:48:21;16.30;99.90
5901;DHT22;2976;49.764;9.796;2023-08-12T02:50:46;16.30;99.90
5901;DHT22;2976;49.764;9.796;2023-08-12T02:53:12;16.30;99.90
5901;DHT22;2976;49.764;9.796;2023-08-12T02:55:37;16.30;99.90
5901;DHT22;2976;49.764;9.796;2023-08-12T02:58:04;16.40;99.90
5901;DHT22;2976;49.764;9.796;2023-08-12T03:00:29;16.40;99.90
5901;DHT22;2976;49.764;9.796;2023-08-12T03:02:55;16.50;99.90
5901;DHT22;2976;49.764;9.796;2023-08-12T03:05:21;16.50;99.90
5901;DHT22;2976;49.764;9.796;2023-08-12T03:07:48;16.60;99.90
5901;DHT22;2976;49.764;9.796;2023-08-12T03:10:14;16.60;99.90
5901;DHT22;2976;49.764;9.796;2023-08-12T03:12:40;16.70;99.90
5901;DHT22;2976;49.764;9.796;2023-08-12T03:15:07;16.70;99.90
5901;DHT22;2976;49.764;9.796;2023-08-12T03:17:33;16.80;99.90
5901;DHT22;2976;49.764;9.796;2023-08-12T03:19:58;16.80;99.90
5901;DHT22;2976;49.764;9.796;2023-08-12T03:22:30;16.70;99.90
5901;DHT22;2976;49.764;9.796;2023-08-12T03:24:55;16.60;99.90
5901;DHT22;2976;49.764;9.796;2023-08-12T03:27:21;16.40;99.90
5901;DHT22;2976;49.764;9.796;2023-08-12T03:29:47;16.30;99.90
5901;DHT22;2976;49.764;9.796;2023-08-12T03:32:13;16.30;99.90
5901;DHT22;2976;49.764;9.796;2023-08-12T03:34:38;16.30;99.90
5901;DHT22;2976;49.764;9.796;2023-08-12T03:37:04;16.30;99.90
5901;DHT22;2976;49.764;9.796;2023-08-12T03:39:30;16.30;99.90
5901;DHT22;2976;49.764;9.796;2023-08-12T03:41:55;16.40;99.90
5901;DHT22;2976;49.764;9.796;2023-08-12T03:44:21;16.50;99.90
5901;DHT22;2976;49.764;9.796;2023-08-12T03:46:46;16.60;99.90
5901;DHT22;2976;49.764;9.796;2023-08-12T03:49:12;16.50;99.90
5901;DHT22;2976;49.764;9.796;2023-08-12T03:51:37;16.50;99.90
5901;DHT22;2976;49.764;9.796;2023-08-12T03:54:03;16.60;99.90
5901;DHT22;2976;49.764;9.796;2023-08-12T03:56:29;16.60;99.90
5901;DHT22;2976;49.764;9.796;2023-08-12T03:58:55;16.70;99.90
5901;DHT22;2976;49.764;9.796;2023-08-12T04:01:20;16.80;99.90
5901;DHT22;2976;49.764;9.796;2023-08-12T04:03:47;16.70;99.90
5901;DHT22;2976;49.764;9.796;2023-08-12T04:06:12;16.70;99.90
5901;DHT22;2976;49.764;9.796;2023-08-12T04:08:38;16.70;99.90
5901;DHT22;2976;49.764;9.796;2023-08-12T04:11:04;16.60;99.90
5901;DHT22;2976;49.764;9.796;2023-08-12T04:13:29;16.60;99.90
5901;DHT22;2976;49.764;9.796;2023-08-12T04:15:55;16.50;99.90
5901;DHT22;2976;49.764;9.796;2023-08-12T04:18:21;16.50;99.90
5901;DHT22;2976;49.764;9.796;2023-08-12T04:20:48;16.50;99.90
5901;DHT22;2976;49.764;9.796;2023-08-12T04:23:15;16.50;99.90
5901;DHT22;2976;49.764;9.796;2023-08-12T04:25:43;16.60;99.90
5901;DHT22;2976;49.764;9.796;2023-08-12T04:28:10;16.60;99.90
5901;DHT22;2976;49.764;9.796;2023-08-12T04:30:42;16.60;99.90
5901;DHT22;2976;49.764;9.796;2023-08-12T04:33:08;16.70;99.90
5901;DHT22;2976;49.764;9.796;2023-08-12T04:35:33;16.70;99.90
5901;DHT22;2976;49.764;9.796;2023-08-12T04:37:59;16.70;99.90
5901;DHT22;2976;49.764;9.796;2023-08-12T04:40:24;16.80;99.90
5901;DHT22;2976;49.764;9.796;2023-08-12T04:42:50;16.80;99.90
5901;DHT22;2976;49.764;9.796;2023-08-12T04:45:16;16.80;99.90
5901;DHT22;2976;49.764;9.796;2023-08-12T04:47:41;16.90;99.90
5901;DHT22;2976;49.764;9.796;2023-08-12T04:50:07;16.90;99.90
5901;DHT22;2976;49.764;9.796;2023-08-12T04:52:33;16.80;99.90
5901;DHT22;2976;49.764;9.796;2023-08-12T04:54:59;16.80;99.90
5901;DHT22;2976;49.764;9.796;2023-08-12T04:57:25;16.70;99.90
5901;DHT22;2976;49.764;9.796;2023-08-12T04:59:50;16.80;99.90
5901;DHT22;2976;49.764;9.796;2023-08-12T05:02:16;16.70;99.90
5901;DHT22;2976;49.764;9.796;2023-08-12T05:04:48;16.70;99.90
5901;DHT22;2976;49.764;9.796;2023-08-12T05:07:13;16.80;99.90
5901;DHT22;2976;49.764;9.796;2023-08-12T05:09:39;16.70;99.90
5901;DHT22;2976;49.764;9.796;2023-08-12T05:12:05;16.50;99.90
5901;DHT22;2976;49.764;9.796;2023-08-12T05:14:31;16.40;99.90
5901;DHT22;2976;49.764;9.796;2023-08-12T05:16:56;16.30;99.90
5901;DHT22;2976;49.764;9.796;2023-08-12T05:19:22;16.30;99.90
5901;DHT22;2976;49.764;9.796;2023-08-12T05:21:47;16.30;99.90
5901;DHT22;2976;49.764;9.796;2023-08-12T05:24:13;16.30;99.90
5901;DHT22;2976;49.764;9.796;2023-08-12T05:26:38;16.40;99.90
5901;DHT22;2976;49.764;9.796;2023-08-12T05:29:04;16.40;99.90
5901;DHT22;2976;49.764;9.796;2023-08-12T05:31:30;16.50;99.90
5901;DHT22;2976;49.764;9.796;2023-08-12T05:33:56;16.60;99.90
5901;DHT22;2976;49.764;9.796;2023-08-12T05:36:22;16.60;99.90
5901;DHT22;2976;49.764;9.796;2023-08-12T05:38:47;16.70;99.90
5901;DHT22;2976;49.764;9.796;2023-08-12T05:41:13;16.80;99.90
5901;DHT22;2976;49.764;9.796;2023-08-12T05:43:39;16.90;99.90
5901;DHT22;2976;49.764;9.796;2023-08-12T05:46:04;17.00;99.90
5901;DHT22;2976;49.764;9.796;2023-08-12T05:48:30;17.10;99.90
5901;DHT22;2976;49.764;9.796;2023-08-12T05:50:55;17.10;99.90
5901;DHT22;2976;49.764;9.796;2023-08-12T05:53:22;17.20;99.90
5901;DHT22;2976;49.764;9.796;2023-08-12T05:55:47;17.30;99.90
5901;DHT22;2976;49.764;9.796;2023-08-12T05:58:13;17.40;99.90
5901;DHT22;2976;49.764;9.796;2023-08-12T06:00:38;17.60;99.90
5901;DHT22;2976;49.764;9.796;2023-08-12T06:03:04;17.60;99.90
5901;DHT22;2976;49.764;9.796;2023-08-12T06:05:30;17.70;99.90
5901;DHT22;2976;49.764;9.796;2023-08-12T06:07:55;17.80;99.90
5901;DHT22;2976;49.764;9.796;2023-08-12T06:10:21;17.90;99.90
5901;DHT22;2976;49.764;9.796;2023-08-12T06:12:46;18.00;99.90
5901;DHT22;2976;49.764;9.796;2023-08-12T06:15:12;18.00;99.90
5901;DHT22;2976;49.764;9.796;2023-08-12T06:17:37;18.00;99.90
5901;DHT22;2976;49.764;9.796;2023-08-12T06:20:03;18.10;99.90
5901;DHT22;2976;49.764;9.796;2023-08-12T06:22:29;18.10;99.90
5901;DHT22;2976;49.764;9.796;2023-08-12T06:24:54;18.20;99.90
5901;DHT22;2976;49.764;9.796;2023-08-12T06:27:20;18.40;99.90
5901;DHT22;2976;49.764;9.796;2023-08-12T06:29:46;18.80;99.90
5901;DHT22;2976;49.764;9.796;2023-08-12T06:32:12;19.40;99.90
5901;DHT22;2976;49.764;9.796;2023-08-12T06:34:40;20.00;99.90
5901;DHT22;2976;49.764;9.796;2023-08-12T06:37:05;20.40;99.90
5901;DHT22;2976;49.764;9.796;2023-08-12T06:39:31;20.70;99.90
5901;DHT22;2976;49.764;9.796;2023-08-12T06:41:56;20.90;99.90
5901;DHT22;2976;49.764;9.796;2023-08-12T06:44:24;21.10;99.90
5901;DHT22;2976;49.764;9.796;2023-08-12T06:46:49;21.40;99.90
5901;DHT22;2976;49.764;9.796;2023-08-12T06:49:15;21.80;99.90
5901;DHT22;2976;49.764;9.796;2023-08-12T06:51:41;21.80;99.90
5901;DHT22;2976;49.764;9.796;2023-08-12T06:54:06;22.10;99.90
5901;DHT22;2976;49.764;9.796;2023-08-12T06:56:32;22.30;99.90
5901;DHT22;2976;49.764;9.796;2023-08-12T06:58:57;22.50;99.90
5901;DHT22;2976;49.764;9.796;2023-08-12T07:01:23;22.50;99.90
5901;DHT22;2976;49.764;9.796;2023-08-12T07:03:49;22.50;99.90
5901;DHT22;2976;49.764;9.796;2023-08-12T07:06:15;22.30;99.90
5901;DHT22;2976;49.764;9.796;2023-08-12T07:08:40;22.40;99.90
5901;DHT22;2976;49.764;9.796;2023-08-12T07:11:06;22.30;99.90
5901;DHT22;2976;49.764;9.796;2023-08-12T07:13:31;21.80;99.90
5901;DHT22;2976;49.764;9.796;2023-08-12T07:15:58;21.40;99.90
5901;DHT22;2976;49.764;9.796;2023-08-12T07:18:24;21.30;99.90
5901;DHT22;2976;49.764;9.796;2023-08-12T07:20:50;21.30;99.90
5901;DHT22;2976;49.764;9.796;2023-08-12T07:23:15;21.20;99.90
5901;DHT22;2976;49.764;9.796;2023-08-12T07:25:41;21.10;99.90
5901;DHT22;2976;49.764;9.796;2023-08-12T07:28:06;21.20;99.90
5901;DHT22;2976;49.764;9.796;2023-08-12T07:30:34;21.50;99.90
5901;DHT22;2976;49.764;9.796;2023-08-12T07:33:01;21.90;99.90
5901;DHT22;2976;49.764;9.796;2023-08-12T07:35:27;22.40;99.90
5901;DHT22;2976;49.764;9.796;2023-08-12T07:37:52;22.70;99.90
5901;DHT22;2976;49.764;9.796;2023-08-12T07:40:18;23.20;99.90
5901;DHT22;2976;49.764;9.796;2023-08-12T07:42:43;23.20;99.90
5901;DHT22;2976;49.764;9.796;2023-08-12T07:45:09;23.40;82.60
5901;DHT22;2976;49.764;9.796;2023-08-12T07:47:35;23.20;90.90
5901;DHT22;2976;49.764;9.796;2023-08-12T07:50:00;23.50;36.80
5901;DHT22;2976;49.764;9.796;2023-08-12T07:52:26;23.50;14.90
5901;DHT22;2976;49.764;9.796;2023-08-12T07:54:51;23.80;1.00
5901;DHT22;2976;49.764;9.796;2023-08-12T07:57:17;24.00;1.00
5901;DHT22;2976;49.764;9.796;2023-08-12T07:59:42;23.90;1.00
5901;DHT22;2976;49.764;9.796;2023-08-12T08:02:08;24.60;1.00
5901;DHT22;2976;49.764;9.796;2023-08-12T08:04:34;25.40;1.00
5901;DHT22;2976;49.764;9.796;2023-08-12T08:07:00;25.70;99.90
5901;DHT22;2976;49.764;9.796;2023-08-12T08:09:25;24.90;99.90
5901;DHT22;2976;49.764;9.796;2023-08-12T08:11:51;25.50;1.00
5901;DHT22;2976;49.764;9.796;2023-08-12T08:14:17;25.80;99.90
5901;DHT22;2976;49.764;9.796;2023-08-12T08:16:42;26.80;1.00
5901;DHT22;2976;49.764;9.796;2023-08-12T08:19:08;27.90;99.90
5901;DHT22;2976;49.764;9.796;2023-08-12T08:21:35;28.60;1.00
5901;DHT22;2976;49.764;9.796;2023-08-12T08:24:01;28.50;99.90
5901;DHT22;2976;49.764;9.796;2023-08-12T08:26:26;28.50;99.90
5901;DHT22;2976;49.764;9.796;2023-08-12T08:28:52;28.80;99.90
5901;DHT22;2976;49.764;9.796;2023-08-12T08:31:18;29.00;99.90
5901;DHT22;2976;49.764;9.796;2023-08-12T08:33:43;29.20;99.90
5901;DHT22;2976;49.764;9.796;2023-08-12T08:36:09;28.90;99.90
5901;DHT22;2976;49.764;9.796;2023-08-12T08:38:34;28.80;95.20
5901;DHT22;2976;49.764;9.796;2023-08-12T08:41:00;28.50;99.90
5901;DHT22;2976;49.764;9.796;2023-08-12T08:43:26;28.40;99.90
5901;DHT22;2976;49.764;9.796;2023-08-12T08:45:53;28.90;99.90
5901;DHT22;2976;49.764;9.796;2023-08-12T08:48:20;29.20;99.90
5901;DHT22;2976;49.764;9.796;2023-08-12T08:50:47;29.60;99.90
5901;DHT22;2976;49.764;9.796;2023-08-12T08:53:14;29.90;96.40
5901;DHT22;2976;49.764;9.796;2023-08-12T08:55:41;30.20;99.90
5901;DHT22;2976;49.764;9.796;2023-08-12T08:58:06;29.80;99.90
5901;DHT22;2976;49.764;9.796;2023-08-12T09:00:32;30.30;99.90
5901;DHT22;2976;49.764;9.796;2023-08-12T09:02:58;30.70;99.90
5901;DHT22;2976;49.764;9.796;2023-08-12T09:05:25;30.80;1.00
5901;DHT22;2976;49.764;9.796;2023-08-12T09:07:51;30.60;1.00
5901;DHT22;2976;49.764;9.796;2023-08-12T09:10:20;30.30;1.00
5901;DHT22;2976;49.764;9.796;2023-08-12T09:12:46;29.40;1.00
5901;DHT22;2976;49.764;9.796;2023-08-12T09:15:12;28.50;99.90
5901;DHT22;2976;49.764;9.796;2023-08-12T09:17:38;27.80;99.90
5901;DHT22;2976;49.764;9.796;2023-08-12T09:20:05;27.10;99.90
5901;DHT22;2976;49.764;9.796;2023-08-12T09:22:37;26.60;1.00
5901;DHT22;2976;49.764;9.796;2023-08-12T09:25:03;26.40;1.00
5901;DHT22;2976;49.764;9.796;2023-08-12T09:27:31;26.20;99.90
5901;DHT22;2976;49.764;9.796;2023-08-12T09:29:57;26.10;99.90
5901;DHT22;2976;49.764;9.796;2023-08-12T09:32:23;26.20;1.00
5901;DHT22;2976;49.764;9.796;2023-08-12T09:34:53;26.00;99.90
5901;DHT22;2976;49.764;9.796;2023-08-12T09:37:20;25.80;1.00
5901;DHT22;2976;49.764;9.796;2023-08-12T09:39:47;26.10;99.90
5901;DHT22;2976;49.764;9.796;2023-08-12T09:42:15;26.20;99.90
5901;DHT22;2976;49.764;9.796;2023-08-12T09:44:41;26.10;99.90
5901;DHT22;2976;49.764;9.796;2023-08-12T09:47:07;26.20;1.00
5901;DHT22;2976;49.764;9.796;2023-08-12T09:49:37;26.60;1.00
5901;DHT22;2976;49.764;9.796;2023-08-12T09:52:04;27.10;1.00
5901;DHT22;2976;49.764;9.796;2023-08-12T09:54:36;27.30;1.00
5901;DHT22;2976;49.764;9.796;2023-08-12T09:57:03;27.40;99.90
5901;DHT22;2976;49.764;9.796;2023-08-12T09:59:33;27.70;99.90
5901;DHT22;2976;49.764;9.796;2023-08-12T10:02:03;27.90;99.90
5901;DHT22;2976;49.764;9.796;2023-08-12T10:04:41;28.30;99.90
5901;DHT22;2976;49.764;9.796;2023-08-12T10:07:10;28.70;1.00
5901;DHT22;2976;49.764;9.796;2023-08-12T10:09:38;29.20;1.00
5901;DHT22;2976;49.764;9.796;2023-08-12T10:12:05;29.80;99.90
5901;DHT22;2976;49.764;9.796;2023-08-12T10:14:32;30.20;1.00
5901;DHT22;2976;49.764;9.796;2023-08-12T10:16:58;30.20;99.90
5901;DHT22;2976;49.764;9.796;2023-08-12T10:19:24;30.40;99.90
5901;DHT22;2976;49.764;9.796;2023-08-12T10:21:55;30.20;1.00
5901;DHT22;2976;49.764;9.796;2023-08-12T10:24:23;30.00;1.00
5901;DHT22;2976;49.764;9.796;2023-08-12T10:26:51;29.50;1.00
5901;DHT22;2976;49.764;9.796;2023-08-12T10:29:17;29.80;2.10
5901;DHT22;2976;49.764;9.796;2023-08-12T10:31:42;30.00;99.90
5901;DHT22;2976;49.764;9.796;2023-08-12T10:34:21;30.50;87.70
5901;DHT22;2976;49.764;9.796;2023-08-12T10:36:48;31.40;99.90
5901;DHT22;2976;49.764;9.796;2023-08-12T10:39:14;31.40;99.90
5901;DHT22;2976;49.764;9.796;2023-08-12T10:41:50;31.60;99.90
5901;DHT22;2976;49.764;9.796;2023-08-12T10:44:20;31.90;99.90
5901;DHT22;2976;49.764;9.796;2023-08-12T10:46:50;32.20;1.00
5901;DHT22;2976;49.764;9.796;2023-08-12T10:49:19;32.40;99.90
5901;DHT22;2976;49.764;9.796;2023-08-12T10:51:54;33.00;1.00
5901;DHT22;2976;49.764;9.796;2023-08-12T10:54:27;32.70;1.00
5901;DHT22;2976;49.764;9.796;2023-08-12T10:57:07;33.10;27.60
5901;DHT22;2976;49.764;9.796;2023-08-12T11:04:56;34.00;99.90
5901;DHT22;2976;49.764;9.796;2023-08-12T11:07:31;33.60;1.00
5901;DHT22;2976;49.764;9.796;2023-08-12T11:10:05;33.60;99.90
5901;DHT22;2976;49.764;9.796;2023-08-12T11:12:34;33.40;79.40
5901;DHT22;2976;49.764;9.796;2023-08-12T11:15:01;32.70;99.90
5901;DHT22;2976;49.764;9.796;2023-08-12T11:17:34;33.00;1.00
5901;DHT22;2976;49.764;9.796;2023-08-12T11:20:01;32.80;99.90
5901;DHT22;2976;49.764;9.796;2023-08-12T11:22:26;32.30;99.90
5901;DHT22;2976;49.764;9.796;2023-08-12T11:24:53;32.00;99.90
5901;DHT22;2976;49.764;9.796;2023-08-12T11:27:18;32.20;99.90
5901;DHT22;2976;49.764;9.796;2023-08-12T11:29:44;31.90;1.00
5901;DHT22;2976;49.764;9.796;2023-08-12T11:32:09;31.80;1.00
5901;DHT22;2976;49.764;9.796;2023-08-12T11:34:35;31.90;99.90
5901;DHT22;2976;49.764;9.796;2023-08-12T11:37:02;31.80;99.90
5901;DHT22;2976;49.764;9.796;2023-08-12T11:39:28;31.30;55.20
5901;DHT22;2976;49.764;9.796;2023-08-12T11:41:54;31.00;99.90
5901;DHT22;2976;49.764;9.796;2023-08-12T11:44:22;30.90;1.00
5901;DHT22;2976;49.764;9.796;2023-08-12T11:46:49;31.10;99.90
5901;DHT22;2976;49.764;9.796;2023-08-12T11:49:14;31.30;99.90
5901;DHT22;2976;49.764;9.796;2023-08-12T11:51:41;31.30;99.90
5901;DHT22;2976;49.764;9.796;2023-08-12T11:54:07;31.10;99.90
5901;DHT22;2976;49.764;9.796;2023-08-12T11:56:33;30.90;99.90
5901;DHT22;2976;49.764;9.796;2023-08-12T11:58:59;30.60;99.90
5901;DHT22;2976;49.764;9.796;2023-08-12T12:01:25;30.50;2.60
5901;DHT22;2976;49.764;9.796;2023-08-12T12:03:54;30.50;1.00
5901;DHT22;2976;49.764;9.796;2023-08-12T12:06:35;30.10;99.90
5901;DHT22;2976;49.764;9.796;2023-08-12T12:09:04;29.40;1.00
5901;DHT22;2976;49.764;9.796;2023-08-12T12:11:31;28.70;99.90
5901;DHT22;2976;49.764;9.796;2023-08-12T12:14:01;28.30;12.40
5901;DHT22;2976;49.764;9.796;2023-08-12T12:19:19;27.50;99.90
5901;DHT22;2976;49.764;9.796;2023-08-12T12:21:50;27.30;1.00
5901;DHT22;2976;49.764;9.796;2023-08-12T12:24:16;27.10;12.40
5901;DHT22;2976;49.764;9.796;2023-08-12T12:26:43;26.20;99.90
5901;DHT22;2976;49.764;9.796;2023-08-12T12:29:09;24.50;1.00
5901;DHT22;2976;49.764;9.796;2023-08-12T12:31:37;22.50;99.90
5901;DHT22;2976;49.764;9.796;2023-08-12T12:34:03;21.00;99.90
5901;DHT22;2976;49.764;9.796;2023-08-12T12:36:33;20.20;99.90
5901;DHT22;2976;49.764;9.796;2023-08-12T12:38:59;19.60;99.90
5901;DHT22;2976;49.764;9.796;2023-08-12T12:41:24;19.30;99.90
5901;DHT22;2976;49.764;9.796;2023-08-12T12:43:50;19.20;99.90
5901;DHT22;2976;49.764;9.796;2023-08-12T12:46:16;19.10;99.90
5901;DHT22;2976;49.764;9.796;2023-08-12T12:48:42;19.00;99.90
5901;DHT22;2976;49.764;9.796;2023-08-12T12:51:08;18.90;99.90
5901;DHT22;2976;49.764;9.796;2023-08-12T12:53:33;18.70;99.90
5901;DHT22;2976;49.764;9.796;2023-08-12T12:55:59;18.80;99.90
5901;DHT22;2976;49.764;9.796;2023-08-12T12:58:30;18.80;99.90
5901;DHT22;2976;49.764;9.796;2023-08-12T13:00:56;18.80;99.90
5901;DHT22;2976;49.764;9.796;2023-08-12T13:03:22;18.70;99.90
5901;DHT22;2976;49.764;9.796;2023-08-12T13:05:47;18.80;99.90
5901;DHT22;2976;49.764;9.796;2023-08-12T13:08:13;18.80;99.90
5901;DHT22;2976;49.764;9.796;2023-08-12T13:10:38;18.90;99.90
5901;DHT22;2976;49.764;9.796;2023-08-12T13:13:04;18.80;99.90
5901;DHT22;2976;49.764;9.796;2023-08-12T13:15:29;18.90;99.90
5901;DHT22;2976;49.764;9.796;2023-08-12T13:17:55;18.90;99.90
5901;DHT22;2976;49.764;9.796;2023-08-12T13:20:21;19.00;99.90
5901;DHT22;2976;49.764;9.796;2023-08-12T13:22:47;19.20;99.90
5901;DHT22;2976;49.764;9.796;2023-08-12T13:25:12;19.40;99.90
5901;DHT22;2976;49.764;9.796;2023-08-12T13:27:38;19.50;99.90
5901;DHT22;2976;49.764;9.796;2023-08-12T13:30:04;19.60;99.90
5901;DHT22;2976;49.764;9.796;2023-08-12T13:32:30;19.70;99.90
5901;DHT22;2976;49.764;9.796;2023-08-12T13:34:56;19.80;99.90
5901;DHT22;2976;49.764;9.796;2023-08-12T13:37:21;19.90;99.90
5901;DHT22;2976;49.764;9.796;2023-08-12T13:39:47;20.10;99.90
5901;DHT22;2976;49.764;9.796;2023-08-12T13:42:12;20.50;99.90
5901;DHT22;2976;49.764;9.796;2023-08-12T13:44:38;20.90;99.90
5901;DHT22;2976;49.764;9.796;2023-08-12T13:47:03;21.00;99.90
5901;DHT22;2976;49.764;9.796;2023-08-12T13:49:29;21.00;99.90
5901;DHT22;2976;49.764;9.796;2023-08-12T13:51:54;21.30;99.90
5901;DHT22;2976;49.764;9.796;2023-08-12T13:54:20;21.40;99.90
5901;DHT22;2976;49.764;9.796;2023-08-12T13:56:45;21.50;99.90
5901;DHT22;2976;49.764;9.796;2023-08-12T13:59:11;22.10;99.90
5901;DHT22;2976;49.764;9.796;2023-08-12T14:01:36;22.00;99.90
5901;DHT22;2976;49.764;9.796;2023-08-12T14:04:03;22.20;99.90
5901;DHT22;2976;49.764;9.796;2023-08-12T14:06:29;22.10;99.90
5901;DHT22;2976;49.764;9.796;2023-08-12T14:08:54;22.00;99.90
5901;DHT22;2976;49.764;9.796;2023-08-12T14:11:20;21.80;99.90
5901;DHT22;2976;49.764;9.796;2023-08-12T14:13:46;21.70;99.90
5901;DHT22;2976;49.764;9.796;2023-08-12T14:16:11;21.70;99.90
5901;DHT22;2976;49.764;9.796;2023-08-12T14:18:37;21.80;99.90
5901;DHT22;2976;49.764;9.796;2023-08-12T14:21:04;22.00;99.90
5901;DHT22;2976;49.764;9.796;2023-08-12T14:23:29;22.10;99.90
5901;DHT22;2976;49.764;9.796;2023-08-12T14:25:55;22.20;99.90
5901;DHT22;2976;49.764;9.796;2023-08-12T14:28:20;22.10;99.90
5901;DHT22;2976;49.764;9.796;2023-08-12T14:30:46;22.20;99.90
5901;DHT22;2976;49.764;9.796;2023-08-12T14:33:11;22.10;99.90
5901;DHT22;2976;49.764;9.796;2023-08-12T14:35:37;22.00;99.90
5901;DHT22;2976;49.764;9.796;2023-08-12T14:38:03;21.90;99.90
5901;DHT22;2976;49.764;9.796;2023-08-12T14:40:28;21.80;99.90
5901;DHT22;2976;49.764;9.796;2023-08-12T14:42:54;21.80;99.90
5901;DHT22;2976;49.764;9.796;2023-08-12T14:45:19;21.90;99.90
5901;DHT22;2976;49.764;9.796;2023-08-12T14:47:45;22.00;99.90
5901;DHT22;2976;49.764;9.796;2023-08-12T14:50:11;22.30;99.90
5901;DHT22;2976;49.764;9.796;2023-08-12T14:52:36;22.60;99.90
5901;DHT22;2976;49.764;9.796;2023-08-12T14:55:02;23.00;99.90
5901;DHT22;2976;49.764;9.796;2023-08-12T14:57:28;23.20;99.90
5901;DHT22;2976;49.764;9.796;2023-08-12T14:59:53;23.40;99.90
5901;DHT22;2976;49.764;9.796;2023-08-12T15:02:22;23.50;99.90
5901;DHT22;2976;49.764;9.796;2023-08-12T15:04:48;23.50;99.90
5901;DHT22;2976;49.764;9.796;2023-08-12T15:07:14;23.70;99.90
5901;DHT22;2976;49.764;9.796;2023-08-12T15:09:41;23.90;99.90
5901;DHT22;2976;49.764;9.796;2023-08-12T15:12:07;24.10;99.90
5901;DHT22;2976;49.764;9.796;2023-08-12T15:14:32;24.20;99.90
5901;DHT22;2976;49.764;9.796;2023-08-12T15:16:58;24.60;99.90
5901;DHT22;2976;49.764;9.796;2023-08-12T15:19:23;24.70;99.90
5901;DHT22;2976;49.764;9.796;2023-08-12T15:21:49;24.90;99.90
5901;DHT22;2976;49.764;9.796;2023-08-12T15:24:16;25.00;99.90
5901;DHT22;2976;49.764;9.796;2023-08-12T15:26:42;25.00;99.90
5901;DHT22;2976;49.764;9.796;2023-08-12T15:29:07;24.90;99.90
5901;DHT22;2976;49.764;9.796;2023-08-12T15:31:33;24.80;99.90
5901;DHT22;2976;49.764;9.796;2023-08-12T15:33:58;24.70;99.90
5901;DHT22;2976;49.764;9.796;2023-08-12T15:36:24;24.60;99.90
5901;DHT22;2976;49.764;9.796;2023-08-12T15:38:50;24.50;99.90
5901;DHT22;2976;49.764;9.796;2023-08-12T15:41:16;24.20;99.90
5901;DHT22;2976;49.764;9.796;2023-08-12T15:43:42;24.10;99.90
5901;DHT22;2976;49.764;9.796;2023-08-12T15:46:08;23.90;99.90
5901;DHT22;2976;49.764;9.796;2023-08-12T15:48:34;23.60;99.90
5901;DHT22;2976;49.764;9.796;2023-08-12T15:51:00;23.40;99.90
5901;DHT22;2976;49.764;9.796;2023-08-12T15:53:26;23.20;99.90
5901;DHT22;2976;49.764;9.796;2023-08-12T15:55:51;23.00;99.90
5901;DHT22;2976;49.764;9.796;2023-08-12T15:58:17;22.80;99.90
5901;DHT22;2976;49.764;9.796;2023-08-12T16:00:45;22.70;99.90
5901;DHT22;2976;49.764;9.796;2023-08-12T16:03:14;22.60;99.90
5901;DHT22;2976;49.764;9.796;2023-08-12T16:05:43;22.50;99.90
5901;DHT22;2976;49.764;9.796;2023-08-12T16:08:08;22.60;99.90